Terminal Aerodrome Forecast
Issued by NWS Charleston, WV

Current Version | Previous Version | Text Only | Print | Product List | Glossary Off
Versions: 1 2 3 4 5 6 7 8 9 10 11 12 13 14 15 16 17 18 19 20 21 22 23 24 25

558
FTUS41 KRLX 190248 AAA
TAFPKB
TAF AMD
KPKB 190248Z 1903/1924 08011KT P6SM SCT045 OVC090
     FM190500 12008KT P6SM OVC060
     FM191700 19009KT P6SM SHRA VCTS BKN050CB=

USA.gov is the U.S. government's official web portal to all federal, state and local government web resources and services.